sensor_id;sensor_type;location;lat;lon;timestamp;P1;durP1;ratioP1;P2;durP2;ratioP2
31126;SDS011;17775;57.948;12.514;2022-10-22T00:02:23;13.05;;;8.68;;
31126;SDS011;17775;57.948;12.514;2022-10-22T00:04:51;17.60;;;9.02;;
31126;SDS011;17775;57.948;12.514;2022-10-22T00:07:21;14.65;;;8.77;;
31126;SDS011;17775;57.948;12.514;2022-10-22T00:09:47;16.40;;;8.52;;
31126;SDS011;17775;57.948;12.514;2022-10-22T00:12:14;14.25;;;8.10;;
31126;SDS011;17775;57.948;12.514;2022-10-22T00:14:41;16.60;;;8.90;;
31126;SDS011;17775;57.948;12.514;2022-10-22T00:17:07;15.60;;;8.52;;
31126;SDS011;17775;57.948;12.514;2022-10-22T00:19:37;14.13;;;8.57;;
31126;SDS011;17775;57.948;12.514;2022-10-22T00:22:03;16.25;;;8.60;;
31126;SDS011;17775;57.948;12.514;2022-10-22T00:24:33;15.40;;;10.00;;
31126;SDS011;17775;57.948;12.514;2022-10-22T00:26:59;15.18;;;9.20;;
31126;SDS011;17775;57.948;12.514;2022-10-22T00:29:26;13.25;;;8.27;;
31126;SDS011;17775;57.948;12.514;2022-10-22T00:31:52;14.73;;;8.68;;
31126;SDS011;17775;57.948;12.514;2022-10-22T00:34:20;14.38;;;8.75;;
31126;SDS011;17775;57.948;12.514;2022-10-22T00:36:47;14.15;;;8.32;;
31126;SDS011;17775;57.948;12.514;2022-10-22T00:39:16;15.60;;;8.60;;
31126;SDS011;17775;57.948;12.514;2022-10-22T00:41:43;15.30;;;8.68;;
31126;SDS011;17775;57.948;12.514;2022-10-22T00:46:55;12.43;;;8.30;;
31126;SDS011;17775;57.948;12.514;2022-10-22T00:49:22;14.57;;;8.95;;
31126;SDS011;17775;57.948;12.514;2022-10-22T00:51:48;15.40;;;8.88;;
31126;SDS011;17775;57.948;12.514;2022-10-22T00:54:15;14.13;;;9.15;;
31126;SDS011;17775;57.948;12.514;2022-10-22T00:56:41;15.63;;;8.57;;
31126;SDS011;17775;57.948;12.514;2022-10-22T00:59:07;13.75;;;9.07;;
31126;SDS011;17775;57.948;12.514;2022-10-22T01:01:35;15.57;;;8.68;;
31126;SDS011;17775;57.948;12.514;2022-10-22T01:04:02;16.60;;;9.80;;
31126;SDS011;17775;57.948;12.514;2022-10-22T01:06:31;15.75;;;9.15;;
31126;SDS011;17775;57.948;12.514;2022-10-22T01:11:41;15.80;;;9.10;;
31126;SDS011;17775;57.948;12.514;2022-10-22T01:14:16;12.13;;;7.78;;
31126;SDS011;17775;57.948;12.514;2022-10-22T01:21:57;12.48;;;7.22;;
31126;SDS011;17775;57.948;12.514;2022-10-22T01:24:31;14.02;;;7.57;;
31126;SDS011;17775;57.948;12.514;2022-10-22T01:30:06;11.18;;;7.32;;
31126;SDS011;17775;57.948;12.514;2022-10-22T01:32:38;13.00;;;7.20;;
31126;SDS011;17775;57.948;12.514;2022-10-22T01:35:06;11.77;;;7.00;;
31126;SDS011;17775;57.948;12.514;2022-10-22T01:37:36;10.02;;;6.70;;
31126;SDS011;17775;57.948;12.514;2022-10-22T01:40:04;10.73;;;6.45;;
31126;SDS011;17775;57.948;12.514;2022-10-22T01:42:31;11.57;;;6.88;;
31126;SDS011;17775;57.948;12.514;2022-10-22T01:44:57;12.95;;;7.53;;
31126;SDS011;17775;57.948;12.514;2022-10-22T01:55:27;10.52;;;6.40;;
31126;SDS011;17775;57.948;12.514;2022-10-22T01:58:05;11.20;;;6.55;;
31126;SDS011;17775;57.948;12.514;2022-10-22T02:00:36;12.68;;;6.38;;
31126;SDS011;17775;57.948;12.514;2022-10-22T02:03:08;10.93;;;6.72;;
31126;SDS011;17775;57.948;12.514;2022-10-22T02:05:46;12.18;;;6.38;;
31126;SDS011;17775;57.948;12.514;2022-10-22T02:08:18;9.63;;;6.07;;
31126;SDS011;17775;57.948;12.514;2022-10-22T02:10:45;11.00;;;7.22;;
31126;SDS011;17775;57.948;12.514;2022-10-22T02:13:15;10.52;;;6.18;;
31126;SDS011;17775;57.948;12.514;2022-10-22T02:15:42;12.75;;;6.93;;
31126;SDS011;17775;57.948;12.514;2022-10-22T02:18:10;10.18;;;6.75;;
31126;SDS011;17775;57.948;12.514;2022-10-22T02:20:37;9.70;;;6.47;;
31126;SDS011;17775;57.948;12.514;2022-10-22T02:23:05;12.30;;;6.75;;
31126;SDS011;17775;57.948;12.514;2022-10-22T02:25:35;13.18;;;6.72;;
31126;SDS011;17775;57.948;12.514;2022-10-22T02:30:29;11.27;;;7.40;;
31126;SDS011;17775;57.948;12.514;2022-10-22T02:32:58;11.30;;;6.93;;
31126;SDS011;17775;57.948;12.514;2022-10-22T02:35:25;13.88;;;8.25;;
31126;SDS011;17775;57.948;12.514;2022-10-22T02:37:52;14.23;;;8.30;;
31126;SDS011;17775;57.948;12.514;2022-10-22T02:40:20;13.15;;;7.60;;
31126;SDS011;17775;57.948;12.514;2022-10-22T02:42:47;12.38;;;7.20;;
31126;SDS011;17775;57.948;12.514;2022-10-22T02:45:14;10.48;;;7.05;;
31126;SDS011;17775;57.948;12.514;2022-10-22T02:47:41;12.32;;;7.57;;
31126;SDS011;17775;57.948;12.514;2022-10-22T02:50:07;12.15;;;7.28;;
31126;SDS011;17775;57.948;12.514;2022-10-22T02:52:35;12.75;;;8.13;;
31126;SDS011;17775;57.948;12.514;2022-10-22T02:55:03;11.88;;;7.30;;
31126;SDS011;17775;57.948;12.514;2022-10-22T02:57:29;16.73;;;8.10;;
31126;SDS011;17775;57.948;12.514;2022-10-22T02:59:55;13.43;;;7.32;;
31126;SDS011;17775;57.948;12.514;2022-10-22T03:02:22;13.68;;;7.35;;
31126;SDS011;17775;57.948;12.514;2022-10-22T03:04:48;12.55;;;8.23;;
31126;SDS011;17775;57.948;12.514;2022-10-22T03:07:15;13.98;;;7.88;;
31126;SDS011;17775;57.948;12.514;2022-10-22T03:09:41;11.98;;;7.75;;
31126;SDS011;17775;57.948;12.514;2022-10-22T03:12:07;13.05;;;8.43;;
31126;SDS011;17775;57.948;12.514;2022-10-22T03:14:34;13.63;;;7.78;;
31126;SDS011;17775;57.948;12.514;2022-10-22T03:17:00;13.60;;;7.88;;
31126;SDS011;17775;57.948;12.514;2022-10-22T03:19:27;12.98;;;7.00;;
31126;SDS011;17775;57.948;12.514;2022-10-22T03:21:54;15.75;;;8.52;;
31126;SDS011;17775;57.948;12.514;2022-10-22T03:24:22;10.35;;;7.43;;
31126;SDS011;17775;57.948;12.514;2022-10-22T03:26:51;12.82;;;7.78;;
31126;SDS011;17775;57.948;12.514;2022-10-22T03:29:18;17.40;;;8.57;;
31126;SDS011;17775;57.948;12.514;2022-10-22T03:31:46;12.48;;;7.97;;
31126;SDS011;17775;57.948;12.514;2022-10-22T03:34:12;13.35;;;7.93;;
31126;SDS011;17775;57.948;12.514;2022-10-22T03:36:39;14.85;;;8.15;;
31126;SDS011;17775;57.948;12.514;2022-10-22T03:39:05;14.75;;;7.60;;
31126;SDS011;17775;57.948;12.514;2022-10-22T03:41:32;12.38;;;8.10;;
31126;SDS011;17775;57.948;12.514;2022-10-22T03:44:02;12.85;;;7.88;;
31126;SDS011;17775;57.948;12.514;2022-10-22T03:46:29;14.30;;;8.15;;
31126;SDS011;17775;57.948;12.514;2022-10-22T03:48:55;13.13;;;7.80;;
31126;SDS011;17775;57.948;12.514;2022-10-22T03:51:21;14.68;;;7.47;;
31126;SDS011;17775;57.948;12.514;2022-10-22T03:53:48;12.82;;;7.35;;
31126;SDS011;17775;57.948;12.514;2022-10-22T03:56:14;11.35;;;7.25;;
31126;SDS011;17775;57.948;12.514;2022-10-22T03:58:41;11.80;;;7.78;;
31126;SDS011;17775;57.948;12.514;2022-10-22T04:01:08;12.95;;;8.25;;
31126;SDS011;17775;57.948;12.514;2022-10-22T04:03:34;14.05;;;7.85;;
31126;SDS011;17775;57.948;12.514;2022-10-22T04:06:02;11.00;;;7.05;;
31126;SDS011;17775;57.948;12.514;2022-10-22T04:08:28;13.25;;;7.78;;
31126;SDS011;17775;57.948;12.514;2022-10-22T04:10:55;12.80;;;8.20;;
31126;SDS011;17775;57.948;12.514;2022-10-22T04:13:21;17.40;;;8.32;;
31126;SDS011;17775;57.948;12.514;2022-10-22T04:15:48;13.15;;;7.57;;
31126;SDS011;17775;57.948;12.514;2022-10-22T04:18:14;12.38;;;7.88;;
31126;SDS011;17775;57.948;12.514;2022-10-22T04:20:40;12.32;;;7.60;;
31126;SDS011;17775;57.948;12.514;2022-10-22T04:23:07;17.35;;;8.55;;
31126;SDS011;17775;57.948;12.514;2022-10-22T04:25:33;13.77;;;7.63;;
31126;SDS011;17775;57.948;12.514;2022-10-22T04:27:59;15.23;;;8.65;;
31126;SDS011;17775;57.948;12.514;2022-10-22T04:30:26;14.18;;;8.25;;
31126;SDS011;17775;57.948;12.514;2022-10-22T04:32:52;13.40;;;7.22;;
31126;SDS011;17775;57.948;12.514;2022-10-22T04:35:19;13.73;;;7.70;;
31126;SDS011;17775;57.948;12.514;2022-10-22T04:37:45;14.82;;;8.52;;
31126;SDS011;17775;57.948;12.514;2022-10-22T04:40:12;12.00;;;7.75;;
31126;SDS011;17775;57.948;12.514;2022-10-22T04:42:38;12.60;;;7.70;;
31126;SDS011;17775;57.948;12.514;2022-10-22T04:45:04;14.88;;;7.07;;
31126;SDS011;17775;57.948;12.514;2022-10-22T04:47:31;12.05;;;7.22;;
31126;SDS011;17775;57.948;12.514;2022-10-22T04:49:57;16.40;;;8.43;;
31126;SDS011;17775;57.948;12.514;2022-10-22T04:52:23;15.70;;;7.95;;
31126;SDS011;17775;57.948;12.514;2022-10-22T04:54:50;14.20;;;8.77;;
31126;SDS011;17775;57.948;12.514;2022-10-22T04:57:16;13.52;;;7.45;;
31126;SDS011;17775;57.948;12.514;2022-10-22T04:59:43;14.18;;;7.80;;
31126;SDS011;17775;57.948;12.514;2022-10-22T05:02:09;13.88;;;7.65;;
31126;SDS011;17775;57.948;12.514;2022-10-22T05:04:37;13.45;;;8.05;;
31126;SDS011;17775;57.948;12.514;2022-10-22T05:07:03;11.05;;;6.90;;
31126;SDS011;17775;57.948;12.514;2022-10-22T05:09:30;13.82;;;7.47;;
31126;SDS011;17775;57.948;12.514;2022-10-22T05:11:56;12.88;;;7.00;;
31126;SDS011;17775;57.948;12.514;2022-10-22T05:14:23;13.82;;;7.00;;
31126;SDS011;17775;57.948;12.514;2022-10-22T05:16:50;12.25;;;7.03;;
31126;SDS011;17775;57.948;12.514;2022-10-22T05:19:17;11.68;;;6.88;;
31126;SDS011;17775;57.948;12.514;2022-10-22T05:21:44;11.32;;;6.80;;
31126;SDS011;17775;57.948;12.514;2022-10-22T05:24:13;13.68;;;7.68;;
31126;SDS011;17775;57.948;12.514;2022-10-22T05:26:39;14.02;;;9.02;;
31126;SDS011;17775;57.948;12.514;2022-10-22T05:29:06;24.98;;;13.93;;
31126;SDS011;17775;57.948;12.514;2022-10-22T05:31:32;19.23;;;11.38;;
31126;SDS011;17775;57.948;12.514;2022-10-22T05:33:59;15.20;;;9.35;;
31126;SDS011;17775;57.948;12.514;2022-10-22T05:36:26;17.13;;;10.00;;
31126;SDS011;17775;57.948;12.514;2022-10-22T05:38:52;11.85;;;7.70;;
31126;SDS011;17775;57.948;12.514;2022-10-22T05:41:20;11.57;;;6.63;;
31126;SDS011;17775;57.948;12.514;2022-10-22T05:43:46;11.15;;;7.00;;
31126;SDS011;17775;57.948;12.514;2022-10-22T05:46:14;10.98;;;7.28;;
31126;SDS011;17775;57.948;12.514;2022-10-22T05:48:48;12.45;;;7.22;;
31126;SDS011;17775;57.948;12.514;2022-10-22T05:51:15;10.15;;;7.38;;
31126;SDS011;17775;57.948;12.514;2022-10-22T05:53:42;10.68;;;6.60;;
31126;SDS011;17775;57.948;12.514;2022-10-22T05:56:12;10.40;;;6.40;;
31126;SDS011;17775;57.948;12.514;2022-10-22T05:58:39;9.75;;;5.72;;
31126;SDS011;17775;57.948;12.514;2022-10-22T06:01:06;11.93;;;6.22;;
31126;SDS011;17775;57.948;12.514;2022-10-22T06:03:33;9.25;;;6.15;;
31126;SDS011;17775;57.948;12.514;2022-10-22T06:06:00;8.85;;;5.95;;
31126;SDS011;17775;57.948;12.514;2022-10-22T06:08:27;10.75;;;6.60;;
31126;SDS011;17775;57.948;12.514;2022-10-22T06:10:53;9.32;;;5.63;;
31126;SDS011;17775;57.948;12.514;2022-10-22T06:13:20;9.60;;;5.65;;
31126;SDS011;17775;57.948;12.514;2022-10-22T06:15:49;8.93;;;5.80;;
31126;SDS011;17775;57.948;12.514;2022-10-22T06:18:15;9.55;;;5.68;;
31126;SDS011;17775;57.948;12.514;2022-10-22T06:20:42;7.78;;;5.45;;
31126;SDS011;17775;57.948;12.514;2022-10-22T06:23:09;8.30;;;5.53;;
31126;SDS011;17775;57.948;12.514;2022-10-22T06:25:36;9.82;;;7.05;;
31126;SDS011;17775;57.948;12.514;2022-10-22T06:28:02;11.63;;;6.05;;
31126;SDS011;17775;57.948;12.514;2022-10-22T06:30:31;8.55;;;5.72;;
31126;SDS011;17775;57.948;12.514;2022-10-22T06:32:58;9.43;;;5.38;;
31126;SDS011;17775;57.948;12.514;2022-10-22T06:35:24;7.57;;;5.60;;
31126;SDS011;17775;57.948;12.514;2022-10-22T06:37:51;9.50;;;5.82;;
31126;SDS011;17775;57.948;12.514;2022-10-22T06:40:17;8.95;;;5.75;;
31126;SDS011;17775;57.948;12.514;2022-10-22T06:42:44;7.72;;;5.22;;
31126;SDS011;17775;57.948;12.514;2022-10-22T06:45:10;8.77;;;5.68;;
31126;SDS011;17775;57.948;12.514;2022-10-22T06:47:37;7.60;;;5.43;;
31126;SDS011;17775;57.948;12.514;2022-10-22T06:50:06;10.65;;;5.70;;
31126;SDS011;17775;57.948;12.514;2022-10-22T06:52:32;8.60;;;5.53;;
31126;SDS011;17775;57.948;12.514;2022-10-22T06:54:59;9.48;;;5.38;;
31126;SDS011;17775;57.948;12.514;2022-10-22T06:57:25;9.40;;;5.32;;
31126;SDS011;17775;57.948;12.514;2022-10-22T06:59:51;10.25;;;6.13;;
31126;SDS011;17775;57.948;12.514;2022-10-22T07:02:18;8.57;;;5.93;;
31126;SDS011;17775;57.948;12.514;2022-10-22T07:04:44;9.05;;;6.00;;
31126;SDS011;17775;57.948;12.514;2022-10-22T07:07:11;11.00;;;6.70;;
31126;SDS011;17775;57.948;12.514;2022-10-22T07:09:37;9.52;;;6.25;;
31126;SDS011;17775;57.948;12.514;2022-10-22T07:12:04;12.75;;;7.68;;
31126;SDS011;17775;57.948;12.514;2022-10-22T07:14:31;12.40;;;7.28;;
31126;SDS011;17775;57.948;12.514;2022-10-22T07:16:57;11.40;;;7.38;;
31126;SDS011;17775;57.948;12.514;2022-10-22T07:19:23;11.80;;;7.93;;
31126;SDS011;17775;57.948;12.514;2022-10-22T07:21:50;10.20;;;6.63;;
31126;SDS011;17775;57.948;12.514;2022-10-22T07:24:16;11.98;;;6.85;;
31126;SDS011;17775;57.948;12.514;2022-10-22T07:26:43;13.40;;;7.28;;
31126;SDS011;17775;57.948;12.514;2022-10-22T07:29:12;12.40;;;7.30;;
31126;SDS011;17775;57.948;12.514;2022-10-22T07:31:40;12.48;;;6.63;;
31126;SDS011;17775;57.948;12.514;2022-10-22T07:34:07;12.23;;;6.60;;
31126;SDS011;17775;57.948;12.514;2022-10-22T07:36:33;10.57;;;6.75;;
31126;SDS011;17775;57.948;12.514;2022-10-22T07:39:00;11.48;;;6.32;;
31126;SDS011;17775;57.948;12.514;2022-10-22T07:41:27;10.57;;;6.45;;
31126;SDS011;17775;57.948;12.514;2022-10-22T07:43:54;10.82;;;6.50;;
31126;SDS011;17775;57.948;12.514;2022-10-22T07:46:21;9.70;;;6.18;;
31126;SDS011;17775;57.948;12.514;2022-10-22T07:48:47;9.40;;;6.70;;
31126;SDS011;17775;57.948;12.514;2022-10-22T07:51:14;8.88;;;5.57;;
31126;SDS011;17775;57.948;12.514;2022-10-22T07:53:40;10.43;;;6.07;;
31126;SDS011;17775;57.948;12.514;2022-10-22T07:56:07;9.15;;;5.75;;
31126;SDS011;17775;57.948;12.514;2022-10-22T07:58:34;10.88;;;5.95;;
31126;SDS011;17775;57.948;12.514;2022-10-22T08:01:00;9.10;;;6.20;;
31126;SDS011;17775;57.948;12.514;2022-10-22T08:03:27;7.85;;;5.20;;
31126;SDS011;17775;57.948;12.514;2022-10-22T08:05:56;12.07;;;7.75;;
31126;SDS011;17775;57.948;12.514;2022-10-22T08:08:23;11.63;;;7.40;;
31126;SDS011;17775;57.948;12.514;2022-10-22T08:10:55;10.98;;;6.97;;
31126;SDS011;17775;57.948;12.514;2022-10-22T08:13:22;9.55;;;6.30;;
31126;SDS011;17775;57.948;12.514;2022-10-22T08:15:49;8.32;;;5.45;;
31126;SDS011;17775;57.948;12.514;2022-10-22T08:20:46;7.72;;;4.65;;
31126;SDS011;17775;57.948;12.514;2022-10-22T08:23:12;6.65;;;4.78;;
31126;SDS011;17775;57.948;12.514;2022-10-22T08:25:39;6.90;;;4.70;;
31126;SDS011;17775;57.948;12.514;2022-10-22T08:28:05;7.45;;;4.90;;
31126;SDS011;17775;57.948;12.514;2022-10-22T08:30:31;6.00;;;4.25;;
31126;SDS011;17775;57.948;12.514;2022-10-22T08:32:59;6.30;;;3.88;;
31126;SDS011;17775;57.948;12.514;2022-10-22T08:35:25;6.68;;;3.75;;
31126;SDS011;17775;57.948;12.514;2022-10-22T08:37:55;6.40;;;4.35;;
31126;SDS011;17775;57.948;12.514;2022-10-22T08:40:28;6.80;;;3.78;;
31126;SDS011;17775;57.948;12.514;2022-10-22T08:50:49;5.72;;;3.55;;
31126;SDS011;17775;57.948;12.514;2022-10-22T08:53:17;6.28;;;3.55;;
31126;SDS011;17775;57.948;12.514;2022-10-22T08:55:44;6.22;;;3.63;;
31126;SDS011;17775;57.948;12.514;2022-10-22T08:58:16;49.88;;;22.33;;
31126;SDS011;17775;57.948;12.514;2022-10-22T09:08:23;6.97;;;4.80;;
31126;SDS011;17775;57.948;12.514;2022-10-22T09:10:51;12.38;;;7.85;;
31126;SDS011;17775;57.948;12.514;2022-10-22T09:13:20;15.93;;;8.57;;
31126;SDS011;17775;57.948;12.514;2022-10-22T09:15:48;5.45;;;3.95;;
31126;SDS011;17775;57.948;12.514;2022-10-22T09:20:49;4.55;;;3.75;;
31126;SDS011;17775;57.948;12.514;2022-10-22T09:25:44;7.07;;;4.22;;
31126;SDS011;17775;57.948;12.514;2022-10-22T09:28:12;5.50;;;3.60;;
31126;SDS011;17775;57.948;12.514;2022-10-22T09:30:38;7.75;;;4.07;;
31126;SDS011;17775;57.948;12.514;2022-10-22T09:35:39;5.28;;;3.25;;
31126;SDS011;17775;57.948;12.514;2022-10-22T09:38:10;4.07;;;3.03;;
31126;SDS011;17775;57.948;12.514;2022-10-22T09:40:41;7.10;;;3.72;;
31126;SDS011;17775;57.948;12.514;2022-10-22T09:43:11;4.18;;;3.05;;
31126;SDS011;17775;57.948;12.514;2022-10-22T09:45:37;6.55;;;3.58;;
31126;SDS011;17775;57.948;12.514;2022-10-22T09:48:26;5.50;;;3.58;;
31126;SDS011;17775;57.948;12.514;2022-10-22T09:51:14;2.97;;;2.28;;
31126;SDS011;17775;57.948;12.514;2022-10-22T09:53:56;4.05;;;2.35;;
31126;SDS011;17775;57.948;12.514;2022-10-22T09:56:33;4.18;;;2.35;;
31126;SDS011;17775;57.948;12.514;2022-10-22T09:59:15;4.13;;;2.40;;
31126;SDS011;17775;57.948;12.514;2022-10-22T10:01:42;2.70;;;2.10;;
31126;SDS011;17775;57.948;12.514;2022-10-22T10:04:10;3.90;;;2.22;;
31126;SDS011;17775;57.948;12.514;2022-10-22T10:06:41;3.50;;;2.42;;
31126;SDS011;17775;57.948;12.514;2022-10-22T10:09:11;4.63;;;2.55;;
31126;SDS011;17775;57.948;12.514;2022-10-22T10:11:44;3.83;;;2.30;;
31126;SDS011;17775;57.948;12.514;2022-10-22T10:16:57;3.25;;;2.08;;
31126;SDS011;17775;57.948;12.514;2022-10-22T10:27:30;2.85;;;2.08;;
31126;SDS011;17775;57.948;12.514;2022-10-22T10:32:42;3.70;;;2.67;;
31126;SDS011;17775;57.948;12.514;2022-10-22T10:35:24;3.95;;;2.35;;
31126;SDS011;17775;57.948;12.514;2022-10-22T10:40:41;3.20;;;2.20;;
31126;SDS011;17775;57.948;12.514;2022-10-22T10:43:12;6.25;;;3.25;;
31126;SDS011;17775;57.948;12.514;2022-10-22T10:45:50;3.50;;;2.53;;
31126;SDS011;17775;57.948;12.514;2022-10-22T11:01:18;3.22;;;2.33;;
31126;SDS011;17775;57.948;12.514;2022-10-22T11:06:33;3.15;;;2.00;;
31126;SDS011;17775;57.948;12.514;2022-10-22T11:09:20;2.85;;;1.85;;
31126;SDS011;17775;57.948;12.514;2022-10-22T11:11:55;2.88;;;1.70;;
31126;SDS011;17775;57.948;12.514;2022-10-22T11:17:05;3.05;;;2.10;;
31126;SDS011;17775;57.948;12.514;2022-10-22T11:19:37;2.20;;;1.75;;
31126;SDS011;17775;57.948;12.514;2022-10-22T11:24:54;2.20;;;1.60;;
31126;SDS011;17775;57.948;12.514;2022-10-22T11:27:24;3.55;;;1.73;;
31126;SDS011;17775;57.948;12.514;2022-10-22T11:29:53;2.85;;;2.25;;
31126;SDS011;17775;57.948;12.514;2022-10-22T11:32:21;5.18;;;3.65;;
31126;SDS011;17775;57.948;12.514;2022-10-22T11:34:50;7.32;;;4.68;;
31126;SDS011;17775;57.948;12.514;2022-10-22T11:37:17;4.75;;;3.13;;
31126;SDS011;17775;57.948;12.514;2022-10-22T11:39:46;3.38;;;2.40;;
31126;SDS011;17775;57.948;12.514;2022-10-22T11:42:18;3.30;;;2.57;;
31126;SDS011;17775;57.948;12.514;2022-10-22T11:44:46;4.82;;;3.00;;
31126;SDS011;17775;57.948;12.514;2022-10-22T11:47:23;5.65;;;2.47;;
31126;SDS011;17775;57.948;12.514;2022-10-22T11:49:57;3.78;;;2.35;;
31126;SDS011;17775;57.948;12.514;2022-10-22T11:52:25;4.72;;;2.80;;
31126;SDS011;17775;57.948;12.514;2022-10-22T11:54:55;3.40;;;2.45;;
31126;SDS011;17775;57.948;12.514;2022-10-22T11:59:50;3.90;;;2.60;;
31126;SDS011;17775;57.948;12.514;2022-10-22T12:05:18;4.05;;;2.75;;
31126;SDS011;17775;57.948;12.514;2022-10-22T12:07:50;3.35;;;2.47;;
31126;SDS011;17775;57.948;12.514;2022-10-22T12:10:19;3.85;;;2.70;;
31126;SDS011;17775;57.948;12.514;2022-10-22T12:12:51;4.93;;;3.15;;
31126;SDS011;17775;57.948;12.514;2022-10-22T12:15:22;4.47;;;2.90;;
31126;SDS011;17775;57.948;12.514;2022-10-22T12:17:49;7.15;;;3.60;;
31126;SDS011;17775;57.948;12.514;2022-10-22T12:20:15;4.97;;;3.15;;
31126;SDS011;17775;57.948;12.514;2022-10-22T12:22:42;5.45;;;3.50;;
31126;SDS011;17775;57.948;12.514;2022-10-22T12:25:22;4.53;;;3.22;;
31126;SDS011;17775;57.948;12.514;2022-10-22T12:27:50;4.45;;;2.90;;
31126;SDS011;17775;57.948;12.514;2022-10-22T12:30:19;6.97;;;3.17;;
31126;SDS011;17775;57.948;12.514;2022-10-22T12:32:52;4.30;;;3.25;;
31126;SDS011;17775;57.948;12.514;2022-10-22T12:37:50;4.13;;;2.95;;
31126;SDS011;17775;57.948;12.514;2022-10-22T12:42:46;4.25;;;2.92;;
31126;SDS011;17775;57.948;12.514;2022-10-22T12:45:13;4.80;;;3.17;;
31126;SDS011;17775;57.948;12.514;2022-10-22T12:47:43;3.90;;;2.88;;
31126;SDS011;17775;57.948;12.514;2022-10-22T12:50:14;5.40;;;3.35;;
31126;SDS011;17775;57.948;12.514;2022-10-22T12:52:44;5.97;;;3.17;;
31126;SDS011;17775;57.948;12.514;2022-10-22T12:55:14;5.43;;;3.33;;
31126;SDS011;17775;57.948;12.514;2022-10-22T12:57:41;5.10;;;3.30;;
31126;SDS011;17775;57.948;12.514;2022-10-22T13:00:24;5.47;;;3.75;;
31126;SDS011;17775;57.948;12.514;2022-10-22T13:02:51;5.25;;;3.10;;
31126;SDS011;17775;57.948;12.514;2022-10-22T13:07:49;6.28;;;3.65;;
31126;SDS011;17775;57.948;12.514;2022-10-22T13:10:26;5.22;;;3.55;;
31126;SDS011;17775;57.948;12.514;2022-10-22T13:12:53;4.90;;;3.53;;
31126;SDS011;17775;57.948;12.514;2022-10-22T13:17:48;6.00;;;3.53;;
31126;SDS011;17775;57.948;12.514;2022-10-22T13:20:16;5.13;;;3.35;;
31126;SDS011;17775;57.948;12.514;2022-10-22T13:25:27;7.75;;;3.30;;
31126;SDS011;17775;57.948;12.514;2022-10-22T13:28:01;4.50;;;3.15;;
31126;SDS011;17775;57.948;12.514;2022-10-22T13:32:58;4.30;;;3.03;;
31126;SDS011;17775;57.948;12.514;2022-10-22T13:35:29;4.95;;;3.75;;
31126;SDS011;17775;57.948;12.514;2022-10-22T13:37:57;8.38;;;3.17;;
31126;SDS011;17775;57.948;12.514;2022-10-22T13:40:24;6.95;;;4.75;;
31126;SDS011;17775;57.948;12.514;2022-10-22T13:42:51;5.03;;;3.70;;
31126;SDS011;17775;57.948;12.514;2022-10-22T13:45:17;5.78;;;4.00;;
31126;SDS011;17775;57.948;12.514;2022-10-22T13:47:45;4.93;;;3.67;;
31126;SDS011;17775;57.948;12.514;2022-10-22T13:50:14;7.15;;;4.05;;
31126;SDS011;17775;57.948;12.514;2022-10-22T13:52:41;6.80;;;4.15;;
31126;SDS011;17775;57.948;12.514;2022-10-22T13:55:43;7.10;;;3.60;;
31126;SDS011;17775;57.948;12.514;2022-10-22T13:58:15;5.47;;;3.70;;
31126;SDS011;17775;57.948;12.514;2022-10-22T14:00:46;6.13;;;3.83;;
31126;SDS011;17775;57.948;12.514;2022-10-22T14:03:16;5.80;;;3.92;;
31126;SDS011;17775;57.948;12.514;2022-10-22T14:05:44;6.18;;;3.83;;
31126;SDS011;17775;57.948;12.514;2022-10-22T14:08:12;5.18;;;3.58;;
31126;SDS011;17775;57.948;12.514;2022-10-22T14:10:39;5.45;;;3.80;;
31126;SDS011;17775;57.948;12.514;2022-10-22T14:13:06;5.70;;;3.63;;
31126;SDS011;17775;57.948;12.514;2022-10-22T14:15:33;6.82;;;4.03;;
31126;SDS011;17775;57.948;12.514;2022-10-22T14:18:00;5.60;;;3.53;;
31126;SDS011;17775;57.948;12.514;2022-10-22T14:20:27;6.00;;;4.50;;
31126;SDS011;17775;57.948;12.514;2022-10-22T14:22:54;5.70;;;3.47;;
31126;SDS011;17775;57.948;12.514;2022-10-22T14:25:21;5.40;;;4.07;;
31126;SDS011;17775;57.948;12.514;2022-10-22T14:27:48;6.35;;;3.75;;
31126;SDS011;17775;57.948;12.514;2022-10-22T14:30:18;5.07;;;3.67;;
31126;SDS011;17775;57.948;12.514;2022-10-22T14:32:45;8.20;;;3.92;;
31126;SDS011;17775;57.948;12.514;2022-10-22T14:35:14;5.60;;;3.78;;
31126;SDS011;17775;57.948;12.514;2022-10-22T14:37:41;8.02;;;4.45;;
31126;SDS011;17775;57.948;12.514;2022-10-22T14:40:08;6.05;;;4.03;;
31126;SDS011;17775;57.948;12.514;2022-10-22T14:42:38;8.35;;;5.72;;
31126;SDS011;17775;57.948;12.514;2022-10-22T14:45:08;7.30;;;5.00;;
31126;SDS011;17775;57.948;12.514;2022-10-22T14:47:36;6.45;;;5.00;;
31126;SDS011;17775;57.948;12.514;2022-10-22T14:50:03;8.05;;;4.97;;
31126;SDS011;17775;57.948;12.514;2022-10-22T14:52:31;8.90;;;4.30;;
31126;SDS011;17775;57.948;12.514;2022-10-22T14:54:58;7.35;;;4.50;;
31126;SDS011;17775;57.948;12.514;2022-10-22T14:57:24;8.25;;;3.72;;
31126;SDS011;17775;57.948;12.514;2022-10-22T14:59:50;5.75;;;4.15;;
31126;SDS011;17775;57.948;12.514;2022-10-22T15:02:20;8.32;;;4.57;;
31126;SDS011;17775;57.948;12.514;2022-10-22T15:04:47;7.32;;;4.43;;
31126;SDS011;17775;57.948;12.514;2022-10-22T15:07:17;7.13;;;4.70;;
31126;SDS011;17775;57.948;12.514;2022-10-22T15:09:45;6.32;;;4.30;;
31126;SDS011;17775;57.948;12.514;2022-10-22T15:12:11;6.75;;;4.38;;
31126;SDS011;17775;57.948;12.514;2022-10-22T15:14:41;8.25;;;5.00;;
31126;SDS011;17775;57.948;12.514;2022-10-22T15:17:07;10.13;;;5.25;;
31126;SDS011;17775;57.948;12.514;2022-10-22T15:19:33;8.18;;;5.10;;
31126;SDS011;17775;57.948;12.514;2022-10-22T15:22:00;10.77;;;6.32;;
31126;SDS011;17775;57.948;12.514;2022-10-22T15:24:30;14.32;;;5.35;;
31126;SDS011;17775;57.948;12.514;2022-10-22T15:26:56;10.20;;;5.95;;
31126;SDS011;17775;57.948;12.514;2022-10-22T15:29:23;10.65;;;5.88;;
31126;SDS011;17775;57.948;12.514;2022-10-22T15:31:51;10.02;;;5.40;;
31126;SDS011;17775;57.948;12.514;2022-10-22T15:34:20;9.50;;;5.15;;
31126;SDS011;17775;57.948;12.514;2022-10-22T15:36:48;9.55;;;5.10;;
31126;SDS011;17775;57.948;12.514;2022-10-22T15:39:14;9.63;;;5.35;;
31126;SDS011;17775;57.948;12.514;2022-10-22T15:41:40;8.50;;;5.50;;
31126;SDS011;17775;57.948;12.514;2022-10-22T15:44:07;11.07;;;6.20;;
31126;SDS011;17775;57.948;12.514;2022-10-22T15:46:36;13.27;;;5.65;;
31126;SDS011;17775;57.948;12.514;2022-10-22T15:49:03;10.90;;;5.82;;
31126;SDS011;17775;57.948;12.514;2022-10-22T15:51:29;13.13;;;5.63;;
31126;SDS011;17775;57.948;12.514;2022-10-22T15:53:56;13.98;;;7.20;;
31126;SDS011;17775;57.948;12.514;2022-10-22T15:56:24;10.95;;;6.57;;
31126;SDS011;17775;57.948;12.514;2022-10-22T15:58:51;10.23;;;6.18;;
31126;SDS011;17775;57.948;12.514;2022-10-22T16:01:18;11.05;;;6.70;;
31126;SDS011;17775;57.948;12.514;2022-10-22T16:03:44;12.70;;;7.75;;
31126;SDS011;17775;57.948;12.514;2022-10-22T16:06:11;16.52;;;8.10;;
31126;SDS011;17775;57.948;12.514;2022-10-22T16:08:37;10.82;;;6.50;;
31126;SDS011;17775;57.948;12.514;2022-10-22T16:11:04;16.30;;;8.27;;
31126;SDS011;17775;57.948;12.514;2022-10-22T16:13:31;14.15;;;7.22;;
31126;SDS011;17775;57.948;12.514;2022-10-22T16:15:57;13.20;;;7.25;;
31126;SDS011;17775;57.948;12.514;2022-10-22T16:18:25;14.10;;;7.32;;
31126;SDS011;17775;57.948;12.514;2022-10-22T16:20:52;13.90;;;7.78;;
31126;SDS011;17775;57.948;12.514;2022-10-22T16:23:18;15.48;;;8.30;;